Maple Springs, North Carolina
Current Conditions -  °F | °C
As of 6:15 PM on Thursday 27 Nov 2014 (Local Time) from KTNB Reporting Station
Light Snow Light Snow  
Wind Chill: 17°   Ceiling: 1600
Heat Index: 28°   Visibility: 4mi
Dew Point: 26°   Wind: 14mph
Humidity: 91%   Direction: 310°NW
Pressure: 30.13"   Gusts: 22mph
Location:  36.2179°N, 81.3873°W
Report Text: KTNB 272315Z AUTO 31012G19KT 4SM -SN SCT008 BKN016 OVC035 M02/M04 A3013 RMK AO2 T10231036
Loading
Personal Weather Stations






























Interactive Weather Map New forecast layout! Learn more

10-Day Weather Forecast

Advertisements
Track Severe Weather on mobile